createdAt,value
2022-08-09T00:04:06.366Z,14.41
2022-08-09T00:09:17.940Z,14.35
2022-08-09T00:14:37.927Z,14.31
2022-08-09T00:19:40.631Z,14.29
2022-08-09T00:24:50.142Z,14.28
2022-08-09T00:30:16.168Z,14.27
2022-08-09T00:35:14.587Z,14.23
2022-08-09T00:40:19.817Z,14.17
2022-08-09T00:45:22.037Z,14.11
2022-08-09T00:50:25.452Z,14.03
2022-08-09T00:55:54.212Z,13.93
2022-08-09T01:00:54.911Z,13.88
2022-08-09T01:06:17.608Z,13.89
2022-08-09T01:11:58.699Z,13.88
2022-08-09T01:17:11.758Z,13.83
2022-08-09T01:22:55.682Z,13.79
2022-08-09T01:27:59.891Z,13.73
2022-08-09T01:33:03.285Z,13.70
2022-08-09T01:38:15.325Z,13.67
2022-08-09T01:43:19.116Z,13.60
2022-08-09T01:48:29.784Z,13.54
2022-08-09T01:53:41.518Z,13.49
2022-08-09T01:58:48.965Z,13.41
2022-08-09T02:03:53.587Z,13.35
2022-08-09T02:09:06.884Z,13.31
2022-08-09T02:14:15.785Z,13.30
2022-08-09T02:19:38.912Z,13.31
2022-08-09T02:24:51.864Z,13.30
2022-08-09T02:29:57.977Z,13.30
2022-08-09T02:35:17.421Z,13.32
2022-08-09T02:40:27.110Z,13.37
2022-08-09T02:45:37.632Z,13.43
2022-08-09T02:50:51.900Z,13.47
2022-08-09T02:55:59.942Z,13.50
2022-08-09T03:01:06.175Z,13.53
2022-08-09T03:06:14.810Z,13.55
2022-08-09T03:11:30.132Z,13.53
2022-08-09T03:16:44.939Z,13.49
2022-08-09T03:21:51.578Z,13.44
2022-08-09T03:26:54.197Z,13.40
2022-08-09T03:32:00.413Z,13.36
2022-08-09T03:37:29.236Z,13.31
2022-08-09T03:42:28.838Z,13.30
2022-08-09T03:47:36.685Z,13.40
2022-08-09T03:52:46.060Z,13.85
2022-08-09T03:57:57.474Z,14.40
2022-08-09T04:03:19.596Z,14.90
2022-08-09T04:08:28.917Z,15.87
2022-08-09T04:14:37.214Z,16.92
2022-08-09T04:18:54.619Z,18.24
2022-08-09T04:23:57.713Z,19.05
2022-08-09T04:29:03.676Z,19.34
2022-08-09T04:34:11.865Z,19.51
2022-08-09T04:39:14.594Z,20.00
2022-08-09T04:44:16.799Z,21.04
2022-08-09T04:49:30.223Z,21.93
2022-08-09T04:54:41.373Z,22.59
2022-08-09T04:59:43.846Z,22.98
2022-08-09T05:04:55.255Z,23.42
2022-08-09T05:10:01.174Z,23.77
2022-08-09T05:15:11.871Z,24.45
2022-08-09T05:20:29.534Z,24.62
2022-08-09T05:25:45.741Z,23.24
2022-08-09T05:30:59.687Z,21.81
2022-08-09T05:36:11.722Z,20.71
2022-08-09T05:41:18.791Z,20.20
2022-08-09T05:46:20.934Z,19.98
2022-08-09T05:51:42.269Z,20.02
2022-08-09T05:56:54.699Z,20.28
2022-08-09T06:01:59.045Z,20.45
2022-08-09T06:07:01.695Z,20.78
2022-08-09T06:12:04.221Z,21.53
2022-08-09T06:17:09.298Z,22.46
2022-08-09T06:22:15.400Z,22.87
2022-08-09T06:27:18.213Z,22.79
2022-08-09T06:33:00.857Z,22.58
2022-08-09T06:37:53.346Z,22.34
2022-08-09T06:43:04.104Z,22.41
2022-08-09T06:48:09.936Z,22.43
2022-08-09T06:53:38.245Z,22.45
2022-08-09T07:00:49.824Z,22.60
2022-08-09T07:04:04.356Z,22.86
2022-08-09T07:09:07.529Z,23.12
2022-08-09T07:14:29.800Z,23.42
2022-08-09T07:19:42.353Z,23.80
2022-08-09T07:24:49.214Z,24.33
2022-08-09T07:29:51.920Z,24.84
2022-08-09T07:34:58.816Z,25.16
2022-08-09T07:40:00.961Z,25.30
2022-08-09T07:45:22.597Z,25.34
2022-08-09T07:50:52.730Z,25.54
2022-08-09T07:56:03.624Z,25.84
2022-08-09T08:01:11.370Z,25.95
2022-08-09T08:06:14.326Z,26.08
2022-08-09T08:12:10.983Z,26.11
2022-08-09T08:16:51.078Z,26.04
2022-08-09T08:22:04.869Z,25.95
2022-08-09T08:27:16.589Z,25.80
2022-08-09T08:32:41.686Z,25.69
2022-08-09T08:38:02.043Z,25.87
2022-08-09T08:43:13.635Z,25.96
2022-08-09T08:48:16.860Z,26.12
2022-08-09T08:53:22.376Z,26.69
2022-08-09T08:58:27.381Z,26.65
2022-08-09T09:03:37.582Z,26.88
2022-08-09T09:08:43.041Z,27.05
2022-08-09T09:13:55.736Z,26.77
2022-08-09T09:19:37.044Z,26.46
2022-08-09T09:24:29.059Z,26.24
2022-08-09T09:29:58.111Z,25.92
2022-08-09T09:35:09.930Z,25.51
2022-08-09T09:40:13.074Z,25.34
2022-08-09T09:45:26.281Z,25.47
2022-08-09T09:50:49.575Z,26.15
2022-08-09T09:56:05.557Z,26.34
2022-08-09T10:01:36.758Z,26.58
2022-08-09T10:06:46.758Z,26.28
2022-08-09T10:12:07.742Z,25.87
2022-08-09T10:17:50.489Z,25.90
2022-08-09T10:22:44.009Z,25.59
2022-08-09T10:27:56.685Z,25.29
2022-08-09T10:34:04.981Z,25.72
2022-08-09T10:39:03.325Z,26.24
2022-08-09T10:44:24.967Z,27.12
2022-08-09T10:49:50.829Z,27.46
2022-08-09T10:55:28.749Z,26.88
2022-08-09T11:01:10.909Z,26.25
2022-08-09T11:06:24.729Z,26.37
2022-08-09T11:11:55.683Z,26.62
2022-08-09T11:16:58.692Z,26.42
2022-08-09T11:22:16.558Z,26.41
2022-08-09T11:28:04.669Z,26.62
2022-08-09T11:33:07.913Z,26.76
2022-08-09T11:38:32.472Z,27.46
2022-08-09T11:43:35.764Z,27.30
2022-08-09T11:48:52.828Z,26.95
2022-08-09T11:54:27.733Z,27.15
2022-08-09T11:59:33.629Z,28.10
2022-08-09T12:04:38.130Z,28.58
2022-08-09T12:09:50.937Z,28.46
2022-08-09T12:15:07.323Z,28.82
2022-08-09T12:20:22.177Z,29.41
2022-08-09T12:25:36.582Z,29.34
2022-08-09T12:30:40.029Z,29.28
2022-08-09T12:35:42.862Z,28.82
2022-08-09T12:40:51.759Z,28.14
2022-08-09T12:45:59.568Z,27.47
2022-08-09T12:51:03.950Z,26.73
2022-08-09T12:56:39.225Z,26.18
2022-08-09T13:02:09.672Z,26.15
2022-08-09T13:07:16.889Z,26.14
2022-08-09T13:12:22.355Z,26.28
2022-08-09T13:18:03.480Z,26.47
2022-08-09T13:23:05.539Z,26.77
2022-08-09T13:28:18.992Z,27.06
2022-08-09T13:33:53.194Z,27.09
2022-08-09T13:38:59.847Z,26.92
2022-08-09T13:44:05.311Z,26.70
2022-08-09T13:49:18.272Z,26.88
2022-08-09T13:54:20.678Z,27.10
2022-08-09T13:59:27.915Z,27.09
2022-08-09T14:04:59.291Z,27.28
2022-08-09T14:10:01.755Z,27.12
2022-08-09T14:15:19.677Z,26.84
2022-08-09T14:20:49.306Z,26.70
2022-08-09T14:26:05.858Z,26.97
2022-08-09T14:31:12.338Z,27.36
2022-08-09T14:36:20.265Z,27.91
2022-08-09T14:41:34.748Z,28.19
2022-08-09T14:47:03.085Z,28.65
2022-08-09T14:52:05.198Z,28.84
2022-08-09T14:57:08.059Z,28.80
2022-08-09T15:02:10.323Z,28.37
2022-08-09T15:07:14.620Z,27.60
2022-08-09T15:12:19.172Z,26.83
2022-08-09T15:17:22.924Z,26.28
2022-08-09T15:22:27.457Z,26.08
2022-08-09T15:27:29.496Z,26.26
2022-08-09T15:32:52.658Z,26.38
2022-08-09T15:38:11.789Z,26.62
2022-08-09T15:43:14.349Z,27.07
2022-08-09T15:48:28.753Z,27.59
2022-08-09T15:54:07.904Z,27.95
2022-08-09T15:59:00.785Z,28.31
2022-08-09T16:04:04.554Z,28.33
2022-08-09T16:09:06.764Z,28.07
2022-08-09T16:14:09.155Z,27.83
2022-08-09T16:19:13.442Z,27.91
2022-08-09T16:24:32.864Z,28.01
2022-08-09T16:29:37.342Z,27.88
2022-08-09T16:34:55.910Z,27.89
2022-08-09T16:40:04.648Z,28.07
2022-08-09T16:45:08.644Z,28.14
2022-08-09T16:50:29.251Z,28.18
2022-08-09T16:55:59.951Z,28.39
2022-08-09T17:00:55.557Z,28.48
2022-08-09T17:06:31.727Z,28.27
2022-08-09T17:11:40.591Z,28.12
2022-08-09T17:16:49.098Z,27.93
2022-08-09T17:21:55.471Z,27.40
2022-08-09T17:26:58.506Z,26.96
2022-08-09T17:32:02.081Z,26.79
2022-08-09T17:37:04.804Z,26.66
2022-08-09T17:42:07.354Z,26.31
2022-08-09T17:47:30.099Z,25.83
2022-08-09T17:52:34.029Z,25.24
2022-08-09T17:58:04.049Z,24.69
2022-08-09T18:02:58.964Z,23.94
2022-08-09T18:08:01.145Z,23.11
2022-08-09T18:13:40.798Z,22.47
2022-08-09T18:18:32.800Z,21.95
2022-08-09T18:24:09.447Z,21.59
2022-08-09T18:30:38.838Z,21.25
2022-08-09T18:34:19.230Z,20.84
2022-08-09T18:39:32.154Z,20.47
2022-08-09T18:44:34.776Z,20.16
2022-08-09T18:49:43.215Z,19.89
2022-08-09T18:54:52.129Z,19.66
2022-08-09T19:00:01.671Z,19.45
2022-08-09T19:05:20.437Z,19.24
2022-08-09T19:10:37.280Z,19.00
2022-08-09T19:15:40.476Z,18.80
2022-08-09T19:20:42.715Z,18.60
2022-08-09T19:26:02.051Z,18.43
2022-08-09T19:31:07.885Z,18.27
2022-08-09T19:36:11.831Z,18.12
2022-08-09T19:41:33.295Z,17.97
2022-08-09T19:46:50.298Z,17.82
2022-08-09T19:51:57.078Z,17.68
2022-08-09T19:56:59.162Z,17.56
2022-08-09T20:02:05.323Z,17.45
2022-08-09T20:07:15.931Z,17.35
2022-08-09T20:12:27.211Z,17.32
2022-08-09T20:17:41.601Z,17.34
2022-08-09T20:22:51.077Z,17.35
2022-08-09T20:27:58.445Z,17.41
2022-08-09T20:33:02.589Z,17.51
2022-08-09T20:38:22.171Z,17.37
2022-08-09T20:43:31.331Z,17.26
2022-08-09T20:48:33.273Z,17.16
2022-08-09T20:53:38.846Z,17.05
2022-08-09T20:58:43.463Z,16.96
2022-08-09T21:04:08.181Z,16.89
2022-08-09T21:09:13.442Z,16.77
2022-08-09T21:14:22.873Z,16.58
2022-08-09T21:20:19.096Z,16.34
2022-08-09T21:25:07.740Z,16.16
2022-08-09T21:30:11.662Z,16.03
2022-08-09T21:35:15.101Z,15.91
2022-08-09T21:40:19.484Z,15.80
2022-08-09T21:45:32.784Z,15.69
2022-08-09T21:50:51.605Z,15.61
2022-08-09T21:55:59.931Z,15.57
2022-08-09T22:01:11.653Z,15.55
2022-08-09T22:06:28.061Z,15.57
2022-08-09T22:12:06.815Z,15.58
2022-08-09T22:16:51.882Z,15.54
2022-08-09T22:21:53.739Z,15.47
2022-08-09T22:26:57.540Z,15.37
2022-08-09T22:31:59.693Z,15.28
2022-08-09T22:37:01.852Z,15.20
2022-08-09T22:42:21.276Z,15.14
2022-08-09T22:48:16.875Z,15.09
2022-08-09T22:52:49.133Z,15.07
2022-08-09T22:57:59.797Z,15.06
2022-08-09T23:03:13.067Z,15.01
2022-08-09T23:08:33.570Z,14.89
2022-08-09T23:13:36.190Z,14.81
2022-08-09T23:18:38.568Z,14.77
2022-08-09T23:23:41.064Z,14.67
2022-08-09T23:28:42.928Z,14.56
2022-08-09T23:33:44.912Z,14.47
2022-08-09T23:38:49.255Z,14.46
2022-08-09T23:43:51.457Z,14.44
2022-08-09T23:48:58.460Z,14.38
2022-08-09T23:54:02.020Z,14.33
2022-08-09T23:59:18.482Z,14.31
